DEDEA EDLW-

Flight info

Callsign DEDEA
Flight time N/A
Altitude
Route DCT
Aircraft DA40

Departure

Time 2026-04-29 12:40
Airport Dortmund Airport (EDLW)

Arrival

Time N/A
Airport -
Time Latitude Longitude Altitude Speed Heading
2026-04-29 12:25 51.51197 7.60399 457 ft 0 kts 196°
2026-04-29 12:29 51.51196 7.60399 457 ft 1 kts 196°
2026-04-29 12:29 51.51199 7.60338 453 ft 0 kts 311°
2026-04-29 12:30 51.51199 7.60337 453 ft 0 kts 311°
2026-04-29 12:30 51.51207 7.60306 449 ft 10 kts 257°
2026-04-29 12:30 51.51167 7.60246 454 ft 9 kts 228°
2026-04-29 12:31 51.51168 7.60153 452 ft 12 kts 334°
2026-04-29 12:31 51.51219 7.60227 439 ft 14 kts 60°
2026-04-29 12:31 51.51264 7.60351 437 ft 11 kts 62°
2026-04-29 12:31 51.51309 7.60484 436 ft 14 kts 54°
2026-04-29 12:32 51.51354 7.60609 431 ft 11 kts 61°
2026-04-29 12:32 51.51392 7.60718 428 ft 13 kts 60°
2026-04-29 12:32 51.51438 7.60854 428 ft 13 kts 55°
2026-04-29 12:32 51.51479 7.60962 425 ft 10 kts 63°
2026-04-29 12:33 51.51511 7.61051 426 ft 11 kts 43°
2026-04-29 12:33 51.51577 7.61013 422 ft 6 kts 280°
2026-04-29 12:33 51.51556 7.60882 421 ft 17 kts 258°
2026-04-29 12:33 51.51530 7.60723 416 ft 6 kts 254°
2026-04-29 12:34 51.51527 7.60681 415 ft 0 kts 286°
2026-04-29 12:38 51.51544 7.60627 414 ft 9 kts 315°
2026-04-29 12:38 51.51594 7.60591 414 ft 7 kts
2026-04-29 12:38 51.51616 7.60621 415 ft 0 kts 61°
2026-04-29 12:39 51.51630 7.60659 416 ft 23 kts 60°
2026-04-29 12:40 51.51805 7.61142 430 ft 70 kts 60°
2026-04-29 12:40 51.52071 7.61868 587 ft 78 kts 58°
2026-04-29 12:40 51.52348 7.62638 853 ft 81 kts 58°
2026-04-29 12:40 51.52573 7.63441 1137 ft 84 kts 77°
2026-04-29 12:41 51.52402 7.64409 1387 ft 93 kts 107°
2026-04-29 12:41 51.52051 7.65246 1677 ft 88 kts 123°
2026-04-29 12:41 51.51513 7.65803 1762 ft 100 kts 142°
2026-04-29 12:41 51.50886 7.66284 1883 ft 101 kts 142°
2026-04-29 12:42 51.50257 7.66735 2043 ft 98 kts 146°
2026-04-29 12:42 51.49621 7.67192 2091 ft 106 kts 148°
2026-04-29 12:42 51.48913 7.67667 2128 ft 108 kts 146°
2026-04-29 12:42 51.48235 7.68103 2334 ft 99 kts 145°
2026-04-29 12:43 51.47605 7.68565 2378 ft 105 kts 141°
2026-04-29 12:43 51.46941 7.69169 2387 ft 113 kts 143°
2026-04-29 12:43 51.46473 7.69545 2410 ft 115 kts 144°
2026-04-29 12:43 51.45742 7.70115 2258 ft 121 kts 146°
2026-04-29 12:44 51.44982 7.70775 1992 ft 127 kts 144°
2026-04-29 12:44 51.43953 7.71651 1961 ft 120 kts 143°
2026-04-29 12:44 51.43470 7.72036 2032 ft 116 kts 143°
2026-04-29 12:44 51.42727 7.72629 2038 ft 111 kts 146°
2026-04-29 12:45 51.42344 7.73488 2120 ft 99 kts 77°
2026-04-29 12:45 51.42738 7.74407 2053 ft 103 kts 56°
2026-04-29 12:45 51.43257 7.75169 2167 ft 109 kts 17°
2026-04-29 12:45 51.43901 7.74250 1816 ft 147 kts 313°
2026-04-29 12:46 51.44531 7.72997 1599 ft 142 kts 293°
2026-04-29 12:46 51.44315 7.71423 1361 ft 144 kts 253°
2026-04-29 12:46 51.44153 7.69879 1395 ft 139 kts 257°
2026-04-29 12:46 51.43457 7.69262 1363 ft 118 kts 172°
2026-04-29 12:47 51.42744 7.69294 1702 ft 98 kts 162°
2026-04-29 12:47 51.42040 7.69421 1833 ft 105 kts 162°
2026-04-29 12:47 51.41321 7.69597 1943 ft 103 kts 160°
2026-04-29 12:47 51.40621 7.69754 2041 ft 101 kts 156°
2026-04-29 12:48 51.40198 7.70549 2132 ft 91 kts 102°
2026-04-29 12:48 51.40139 7.71474 2336 ft 80 kts 88°
2026-04-29 12:48 51.40193 7.72413 2414 ft 84 kts 82°
2026-04-29 12:48 51.40394 7.73327 2623 ft 90 kts 54°
2026-04-29 12:49 51.40856 7.74065 2655 ft 98 kts 49°
2026-04-29 12:49 51.41389 7.74774 2599 ft 101 kts 44°
2026-04-29 12:49 51.41952 7.75457 2592 ft 102 kts 43°
2026-04-29 12:49 51.42518 7.76148 2568 ft 103 kts 44°
2026-04-29 12:50 51.43093 7.76756 2615 ft 103 kts 22°
2026-04-29 12:50 51.43850 7.76249 2393 ft 145 kts 314°
2026-04-29 12:50 51.44244 7.74762 2360 ft 145 kts 295°
2026-04-29 12:50 51.44567 7.73283 2365 ft 139 kts 303°
2026-04-29 12:51 51.45155 7.72077 2298 ft 134 kts 327°
2026-04-29 12:51 51.45963 7.71529 2147 ft 126 kts 358°
2026-04-29 12:51 51.46808 7.70982 1986 ft 135 kts 338°
2026-04-29 12:51 51.46773 7.69570 1646 ft 157 kts 206°
2026-04-29 12:52 51.46028 7.70023 1381 ft 116 kts 89°
2026-04-29 12:52 51.46665 7.70541 1160 ft 123 kts
2026-04-29 12:52 51.47465 7.70328 1322 ft 115 kts 353°
2026-04-29 12:52 51.48222 7.70007 1465 ft 107 kts 354°
2026-04-29 12:53 51.48942 7.69631 1474 ft 113 kts 354°
2026-04-29 12:53 51.49655 7.68990 1460 ft 130 kts 318°
2026-04-29 12:53 51.49858 7.67498 1480 ft 142 kts 266°
2026-04-29 12:53 51.49752 7.65937 1501 ft 142 kts 280°
2026-04-29 12:54 51.50204 7.64663 1530 ft 134 kts 313°
2026-04-29 12:54 51.50313 7.63104 1344 ft 154 kts 258°
2026-04-29 12:54 51.50014 7.61508 1347 ft 130 kts 251°
2026-04-29 12:54 51.49769 7.60291 1219 ft 104 kts 255°
2026-04-29 12:55 51.49522 7.59190 1118 ft 103 kts 251°
2026-04-29 12:55 51.49510 7.58157 1027 ft 90 kts 308°
2026-04-29 12:55 51.49978 7.57508 1024 ft 100 kts 343°
2026-04-29 12:55 51.50518 7.57479 1022 ft 71 kts 59°
2026-04-29 12:56 51.50816 7.58305 910 ft 89 kts 59°
2026-04-29 12:56 51.51119 7.59181 746 ft 92 kts 61°
2026-04-29 12:56 51.51430 7.60072 581 ft 90 kts 60°
2026-04-29 12:56 51.51724 7.60907 440 ft 82 kts 60°
2026-04-29 12:57 51.51988 7.61647 408 ft 69 kts 59°
2026-04-29 12:57 51.52173 7.62168 405 ft 40 kts 58°
2026-04-29 12:57 51.52138 7.62358 404 ft 13 kts 157°
2026-04-29 12:57 51.52119 7.62374 404 ft 0 kts 148°
2026-04-29 13:00 51.52110 7.62383 404 ft 9 kts 147°
2026-04-29 13:00 51.52042 7.62374 403 ft 11 kts 235°
2026-04-29 13:00 51.52007 7.62275 406 ft 11 kts 239°
2026-04-29 13:01 51.51961 7.62142 408 ft 17 kts 243°
2026-04-29 13:01 51.51904 7.61970 409 ft 17 kts 239°
2026-04-29 13:01 51.51850 7.61817 411 ft 15 kts 240°
2026-04-29 13:01 51.51799 7.61672 412 ft 14 kts 240°
2026-04-29 13:02 51.51746 7.61529 415 ft 17 kts 239°
2026-04-29 13:02 51.51691 7.61370 420 ft 15 kts 241°
2026-04-29 13:02 51.51644 7.61233 421 ft 13 kts 241°
2026-04-29 13:02 51.51586 7.61070 420 ft 16 kts 232°
2026-04-29 13:03 51.51544 7.61057 425 ft 7 kts 162°
2026-04-29 13:03 51.51505 7.61041 428 ft 10 kts 235°
2026-04-29 13:03 51.51463 7.60923 429 ft 12 kts 240°
2026-04-29 13:03 51.51421 7.60805 431 ft 11 kts 240°
2026-04-29 13:04 51.51378 7.60687 436 ft 17 kts 239°
2026-04-29 13:04 51.51320 7.60526 438 ft 16 kts 240°
2026-04-29 13:04 51.51268 7.60380 440 ft 14 kts 240°
2026-04-29 13:04 51.51211 7.60212 443 ft 17 kts 242°
2026-04-29 13:05 51.51173 7.60165 451 ft 5 kts 145°
2026-04-29 13:05 51.51186 7.60274 452 ft 11 kts 58°
2026-04-29 13:05 51.51206 7.60363 453 ft 4 kts 83°
2026-04-29 13:05 51.51205 7.60400 455 ft 0 kts 136°
2026-04-29 13:06 51.51197 7.60403 457 ft 0 kts 191°